createdAt,value
2018-02-21T00:01:25.562Z,75.70
2018-02-21T00:03:53.257Z,75.60
2018-02-21T00:06:20.706Z,75.60
2018-02-21T00:08:48.172Z,75.20
2018-02-21T00:11:15.588Z,74.60
2018-02-21T00:13:43.024Z,74.50
2018-02-21T00:16:10.558Z,74.30
2018-02-21T00:18:37.988Z,74.50
2018-02-21T00:21:05.431Z,73.90
2018-02-21T00:23:32.864Z,74.00
2018-02-21T00:26:01.062Z,73.70
2018-02-21T00:28:28.493Z,73.60
2018-02-21T00:30:56.681Z,73.90
2018-02-21T00:33:24.115Z,73.90
2018-02-21T00:35:51.533Z,74.40
2018-02-21T00:38:18.980Z,74.90
2018-02-21T00:40:46.406Z,74.40
2018-02-21T00:43:14.602Z,74.10
2018-02-21T00:45:42.025Z,73.90
2018-02-21T00:48:11.162Z,72.90
2018-02-21T00:50:38.588Z,72.80
2018-02-21T00:53:06.782Z,71.60
2018-02-21T00:55:34.205Z,71.60
2018-02-21T00:58:01.629Z,72.50
2018-02-21T01:00:29.063Z,72.90
2018-02-21T01:02:56.546Z,72.40
2018-02-21T01:05:24.698Z,73.30
2018-02-21T01:07:52.259Z,73.30
2018-02-21T01:10:19.688Z,72.80
2018-02-21T01:12:47.902Z,72.10
2018-02-21T01:15:15.336Z,72.10
2018-02-21T01:17:42.772Z,72.50
2018-02-21T01:20:10.633Z,72.20
2018-02-21T01:22:38.837Z,73.00
2018-02-21T01:25:06.307Z,73.00
2018-02-21T01:27:33.720Z,74.00
2018-02-21T01:30:01.918Z,73.10
2018-02-21T01:32:30.104Z,72.70
2018-02-21T01:34:57.537Z,72.70
2018-02-21T01:37:25.723Z,72.80
2018-02-21T01:39:53.173Z,72.80
2018-02-21T01:42:21.369Z,71.70
2018-02-21T01:44:48.794Z,71.70
2018-02-21T01:47:16.978Z,71.80
2018-02-21T01:49:45.175Z,72.30
2018-02-21T01:54:45.384Z,72.20
2018-02-21T01:57:13.565Z,73.00
2018-02-21T01:59:41.769Z,73.30
2018-02-21T02:02:09.204Z,73.30
2018-02-21T02:04:37.405Z,73.40
2018-02-21T02:07:04.828Z,73.30
2018-02-21T02:09:33.045Z,73.50
2018-02-21T02:12:00.467Z,73.40
2018-02-21T02:14:28.734Z,73.70
2018-02-21T02:16:56.145Z,73.70
2018-02-21T02:19:23.586Z,73.60
2018-02-21T02:21:51.013Z,73.90
2018-02-21T02:24:19.228Z,74.90
2018-02-21T02:26:46.675Z,74.00
2018-02-21T02:29:14.139Z,74.20
2018-02-21T02:31:41.589Z,74.60
2018-02-21T02:34:09.029Z,75.00
2018-02-21T02:36:36.452Z,75.70
2018-02-21T02:39:15.709Z,75.80
2018-02-21T02:41:43.903Z,76.90
2018-02-21T02:44:11.401Z,76.80
2018-02-21T02:46:38.836Z,77.00
2018-02-21T02:49:06.276Z,76.90
2018-02-21T02:51:33.728Z,76.80
2018-02-21T02:54:01.175Z,76.50
2018-02-21T02:56:29.377Z,77.00
2018-02-21T02:58:56.817Z,77.00
2018-02-21T03:01:24.242Z,77.10
2018-02-21T03:03:51.687Z,77.90
2018-02-21T03:06:19.119Z,77.60
2018-02-21T03:08:46.838Z,77.10
2018-02-21T03:11:15.050Z,77.10
2018-02-21T03:13:42.485Z,77.00
2018-02-21T03:16:09.909Z,77.00
2018-02-21T03:18:37.642Z,77.00
2018-02-21T03:21:05.053Z,78.30
2018-02-21T03:23:33.249Z,77.90
2018-02-21T03:26:00.681Z,77.90
2018-02-21T03:28:28.897Z,79.10
2018-02-21T03:30:57.110Z,79.20
2018-02-21T03:33:24.529Z,78.80
2018-02-21T03:35:51.952Z,79.70
2018-02-21T03:38:19.397Z,79.90
2018-02-21T03:40:47.596Z,79.40
2018-02-21T03:43:15.036Z,79.40
2018-02-21T03:45:43.257Z,80.00
2018-02-21T03:48:11.606Z,80.00
2018-02-21T03:50:39.046Z,79.60
2018-02-21T03:53:07.246Z,80.30
2018-02-21T03:55:34.674Z,80.20
2018-02-21T03:58:02.893Z,80.00
2018-02-21T04:00:30.300Z,79.90
2018-02-21T04:02:58.497Z,79.30
2018-02-21T04:05:25.923Z,79.20
2018-02-21T04:07:53.343Z,79.80
2018-02-21T04:10:20.775Z,79.70
2018-02-21T04:12:48.201Z,79.20
2018-02-21T04:15:16.400Z,79.20
2018-02-21T04:17:44.768Z,79.10
2018-02-21T04:20:12.952Z,79.90
2018-02-21T04:22:40.378Z,79.90
2018-02-21T04:25:07.822Z,79.40
2018-02-21T04:27:35.239Z,79.30
2018-02-21T04:30:02.664Z,79.80
2018-02-21T04:32:30.869Z,80.20
2018-02-21T04:34:58.288Z,80.20
2018-02-21T04:37:26.493Z,80.40
2018-02-21T04:39:53.952Z,80.30
2018-02-21T04:42:22.152Z,79.90
2018-02-21T04:44:49.580Z,79.90
2018-02-21T04:47:17.012Z,80.60
2018-02-21T04:49:45.207Z,80.40
2018-02-21T04:52:12.637Z,80.40
2018-02-21T04:57:59.586Z,80.00
2018-02-21T05:00:27.814Z,81.40
2018-02-21T05:02:55.247Z,81.40
2018-02-21T05:05:22.677Z,81.70
2018-02-21T05:07:50.868Z,81.60
2018-02-21T05:10:18.306Z,81.50
2018-02-21T05:12:46.512Z,81.10
2018-02-21T05:15:13.942Z,81.00
2018-02-21T05:17:42.143Z,81.70
2018-02-21T05:20:09.573Z,81.60
2018-02-21T05:22:37.761Z,82.30
2018-02-21T05:25:05.184Z,82.30
2018-02-21T05:27:32.611Z,83.10
2018-02-21T05:30:00.800Z,83.20
2018-02-21T05:32:28.246Z,83.20
2018-02-21T05:34:55.664Z,83.40
2018-02-21T05:37:23.092Z,83.00
2018-02-21T05:39:50.504Z,83.50
2018-02-21T05:42:17.957Z,83.80
2018-02-21T05:44:45.381Z,83.80
2018-02-21T05:47:13.575Z,84.60
2018-02-21T05:49:41.011Z,84.60
2018-02-21T05:52:09.204Z,84.50
2018-02-21T05:54:36.620Z,84.40
2018-02-21T05:57:04.051Z,84.00
2018-02-21T05:59:31.506Z,84.00
2018-02-21T06:01:58.934Z,83.70
2018-02-21T06:04:27.151Z,84.10
2018-02-21T06:06:54.578Z,84.10
2018-02-21T06:09:22.051Z,84.40
2018-02-21T06:11:49.493Z,84.10
2018-02-21T06:14:16.914Z,84.10
2018-02-21T06:16:45.109Z,84.10
2018-02-21T06:19:14.363Z,84.10
2018-02-21T06:21:41.820Z,84.10
2018-02-21T06:24:09.241Z,84.60
2018-02-21T06:26:36.669Z,84.80
2018-02-21T06:29:04.884Z,85.00
2018-02-21T06:31:32.334Z,85.00
2018-02-21T06:33:59.749Z,85.10
2018-02-21T06:36:27.932Z,86.40
2018-02-21T06:38:56.137Z,86.30
2018-02-21T06:41:23.561Z,86.30
2018-02-21T06:43:51.827Z,86.00
2018-02-21T06:46:19.189Z,85.90
2018-02-21T06:48:47.389Z,86.60
2018-02-21T06:51:15.582Z,86.70
2018-02-21T06:53:43.002Z,86.60
2018-02-21T06:56:12.112Z,86.20
2018-02-21T06:58:39.539Z,86.20
2018-02-21T07:01:07.008Z,86.90
2018-02-21T07:03:34.421Z,87.10
2018-02-21T07:06:02.637Z,87.20
2018-02-21T07:08:30.821Z,87.20
2018-02-21T07:10:59.026Z,87.40
2018-02-21T07:13:26.441Z,87.40
2018-02-21T07:15:54.646Z,87.20
2018-02-21T07:18:22.077Z,87.10
2018-02-21T07:20:50.274Z,87.10
2018-02-21T07:23:18.473Z,87.10
2018-02-21T07:25:45.900Z,87.10
2018-02-21T07:28:14.120Z,86.80
2018-02-21T07:30:41.549Z,86.80
2018-02-21T07:33:08.985Z,86.20
2018-02-21T07:35:37.185Z,85.40
2018-02-21T07:38:04.650Z,85.30
2018-02-21T07:40:33.801Z,84.40
2018-02-21T07:43:01.998Z,85.20
2018-02-21T07:45:29.423Z,84.30
2018-02-21T07:47:56.850Z,84.70
2018-02-21T07:50:24.268Z,83.90
2018-02-21T07:52:51.688Z,83.50
2018-02-21T07:55:19.114Z,83.30
2018-02-21T07:57:46.559Z,83.20
2018-02-21T08:00:13.976Z,83.40
2018-02-21T08:02:42.189Z,82.30
2018-02-21T08:05:09.628Z,82.20
2018-02-21T08:07:37.064Z,79.80
2018-02-21T08:10:05.274Z,77.30
2018-02-21T08:12:32.708Z,77.30
2018-02-21T08:15:00.894Z,72.30
2018-02-21T08:17:28.321Z,72.10
2018-02-21T08:19:55.744Z,69.90
2018-02-21T08:22:23.194Z,67.50
2018-02-21T08:24:50.613Z,64.80
2018-02-21T08:27:18.877Z,61.00
2018-02-21T08:29:46.290Z,61.00
2018-02-21T08:32:13.722Z,60.50
2018-02-21T08:34:41.151Z,59.40
2018-02-21T08:37:09.349Z,59.90
2018-02-21T08:39:36.796Z,59.80
2018-02-21T08:42:04.980Z,58.80
2018-02-21T08:44:32.450Z,58.80
2018-02-21T08:46:59.879Z,59.20
2018-02-21T08:49:28.083Z,58.50
2018-02-21T08:51:55.522Z,58.50
2018-02-21T08:54:22.963Z,57.20
2018-02-21T08:56:50.442Z,55.50
2018-02-21T08:59:17.883Z,53.30
2018-02-21T09:01:46.088Z,50.90
2018-02-21T09:04:13.520Z,50.80
2018-02-21T09:06:41.738Z,46.90
2018-02-21T09:09:09.167Z,46.90
2018-02-21T09:11:36.602Z,45.40
2018-02-21T09:14:04.812Z,44.00
2018-02-21T09:16:32.323Z,43.90
2018-02-21T09:18:59.699Z,43.30
2018-02-21T09:21:27.896Z,41.50
2018-02-21T09:23:55.417Z,41.50
2018-02-21T09:26:22.804Z,40.50
2018-02-21T09:28:50.249Z,39.80
2018-02-21T09:31:18.437Z,37.70
2018-02-21T09:33:45.899Z,38.10
2018-02-21T09:36:13.342Z,36.90
2018-02-21T09:38:40.821Z,36.70
2018-02-21T09:41:08.246Z,36.40
2018-02-21T09:43:36.457Z,34.40
2018-02-21T09:46:03.902Z,34.30
2018-02-21T09:48:31.375Z,33.00
2018-02-21T09:50:58.802Z,32.60
2018-02-21T09:53:27.027Z,32.10
2018-02-21T09:55:54.450Z,32.10
2018-02-21T09:58:21.902Z,31.90
2018-02-21T10:00:49.361Z,32.00
2018-02-21T10:03:16.817Z,31.80
2018-02-21T10:05:44.257Z,31.40
2018-02-21T10:08:11.997Z,30.80
2018-02-21T10:10:39.430Z,30.40
2018-02-21T10:13:06.872Z,29.70
2018-02-21T10:15:34.289Z,29.10
2018-02-21T10:18:02.502Z,29.30
2018-02-21T10:20:29.927Z,29.30
2018-02-21T10:22:58.141Z,28.00
2018-02-21T10:25:25.574Z,27.90
2018-02-21T10:27:53.066Z,28.20
2018-02-21T10:30:20.484Z,29.00
2018-02-21T10:32:47.912Z,29.20
2018-02-21T10:35:15.354Z,29.30
2018-02-21T10:37:42.799Z,29.20
2018-02-21T10:40:10.238Z,29.20
2018-02-21T10:42:37.690Z,28.80
2018-02-21T10:45:05.148Z,28.20
2018-02-21T10:47:32.568Z,28.30
2018-02-21T10:50:00.767Z,27.50
2018-02-21T10:52:28.984Z,27.50
2018-02-21T10:54:56.412Z,27.70
2018-02-21T10:57:23.840Z,28.20
2018-02-21T10:59:51.301Z,28.40
2018-02-21T11:02:19.649Z,27.40
2018-02-21T11:04:47.072Z,27.70
2018-02-21T11:07:14.514Z,27.30
2018-02-21T11:09:41.973Z,27.00
2018-02-21T11:12:09.380Z,26.70
2018-02-21T11:14:36.880Z,26.90
2018-02-21T11:17:04.287Z,27.60
2018-02-21T11:19:31.720Z,27.80
2018-02-21T11:21:59.167Z,26.40
2018-02-21T11:24:26.625Z,26.10
2018-02-21T11:26:54.056Z,25.90
2018-02-21T11:29:21.496Z,26.20
2018-02-21T11:31:48.930Z,26.00
2018-02-21T11:34:16.406Z,26.00
2018-02-21T11:36:43.838Z,26.40
2018-02-21T11:39:12.201Z,25.00
2018-02-21T11:41:39.639Z,25.40
2018-02-21T11:44:07.057Z,24.80
2018-02-21T11:46:35.267Z,23.90
2018-02-21T11:49:02.721Z,23.80
2018-02-21T11:51:30.239Z,25.20
2018-02-21T11:53:57.701Z,25.00
2018-02-21T11:56:25.470Z,25.20
2018-02-21T11:58:52.905Z,24.10
2018-02-21T12:01:20.341Z,24.90
2018-02-21T12:03:47.777Z,24.30
2018-02-21T12:06:15.996Z,24.10
2018-02-21T12:08:43.447Z,23.90
2018-02-21T12:11:10.868Z,24.30
2018-02-21T12:13:38.318Z,24.40
2018-02-21T12:16:06.546Z,25.20
2018-02-21T12:18:33.962Z,25.20
2018-02-21T12:21:01.389Z,26.00
2018-02-21T12:23:29.600Z,25.40
2018-02-21T12:25:57.039Z,25.40
2018-02-21T12:28:24.473Z,25.60
2018-02-21T12:30:52.676Z,25.10
2018-02-21T12:33:20.121Z,25.00
2018-02-21T12:35:47.565Z,24.80
2018-02-21T12:38:15.764Z,25.10
2018-02-21T12:40:48.825Z,25.10
2018-02-21T12:43:17.025Z,25.90
2018-02-21T12:45:44.456Z,25.70
2018-02-21T12:48:13.266Z,25.30
2018-02-21T12:50:40.700Z,25.30
2018-02-21T12:53:08.124Z,25.50
2018-02-21T12:55:35.580Z,24.80
2018-02-21T12:58:03.000Z,24.50
2018-02-21T13:00:30.498Z,24.70
2018-02-21T13:02:57.926Z,25.30
2018-02-21T13:05:25.358Z,25.20
2018-02-21T13:07:53.563Z,25.30
2018-02-21T13:10:20.991Z,25.20
2018-02-21T13:12:49.200Z,24.90
2018-02-21T13:15:16.636Z,24.90
2018-02-21T13:17:44.070Z,25.30
2018-02-21T13:20:13.196Z,25.80
2018-02-21T13:22:40.641Z,25.80
2018-02-21T13:25:08.128Z,25.90
2018-02-21T13:27:35.555Z,26.30
2018-02-21T13:30:03.759Z,26.70
2018-02-21T13:32:31.185Z,26.60
2018-02-21T13:34:59.387Z,26.80
2018-02-21T13:37:27.717Z,26.70
2018-02-21T13:39:55.154Z,26.40
2018-02-21T13:42:22.583Z,25.60
2018-02-21T13:44:51.167Z,25.50
2018-02-21T13:47:19.838Z,26.20
2018-02-21T13:49:47.322Z,25.90
2018-02-21T13:52:14.750Z,26.40
2018-02-21T13:54:42.184Z,26.40
2018-02-21T13:57:10.385Z,25.90
2018-02-21T13:59:38.090Z,25.80
2018-02-21T14:02:05.543Z,26.20
2018-02-21T14:04:32.981Z,25.70
2018-02-21T14:07:00.441Z,26.00
2018-02-21T14:09:28.888Z,25.60
2018-02-21T14:11:57.093Z,25.80
2018-02-21T14:14:24.521Z,25.80
2018-02-21T14:16:52.725Z,25.70
2018-02-21T14:19:20.144Z,25.70
2018-02-21T14:21:48.353Z,27.20
2018-02-21T14:24:16.616Z,27.20
2018-02-21T14:26:44.081Z,27.80
2018-02-21T14:29:11.585Z,27.80
2018-02-21T14:31:38.980Z,27.80
2018-02-21T14:34:07.162Z,28.90
2018-02-21T14:36:34.593Z,28.90
2018-02-21T14:39:02.027Z,28.60
2018-02-21T14:41:29.448Z,30.00
2018-02-21T14:43:56.913Z,30.30
2018-02-21T14:46:24.337Z,31.40
2018-02-21T14:48:52.548Z,31.90
2018-02-21T14:51:19.992Z,31.80
2018-02-21T14:53:47.418Z,32.00
2018-02-21T14:56:15.619Z,33.30
2018-02-21T14:58:43.077Z,33.10
2018-02-21T15:01:10.529Z,33.90
2018-02-21T15:03:38.710Z,35.50
2018-02-21T15:06:06.171Z,35.50
2018-02-21T15:08:33.596Z,35.90
2018-02-21T15:11:01.030Z,36.40
2018-02-21T15:13:28.469Z,37.30
2018-02-21T15:15:55.932Z,37.80
2018-02-21T15:18:23.358Z,39.10
2018-02-21T15:20:50.788Z,39.40
2018-02-21T15:23:19.809Z,39.40
2018-02-21T15:25:47.238Z,39.40
2018-02-21T15:28:16.783Z,39.50
2018-02-21T15:30:44.241Z,39.50
2018-02-21T15:33:11.663Z,39.30
2018-02-21T15:35:39.901Z,38.60
2018-02-21T15:38:07.329Z,38.50
2018-02-21T15:40:34.772Z,38.10
2018-02-21T15:43:02.218Z,37.30
2018-02-21T15:45:30.430Z,35.60
2018-02-21T15:47:57.877Z,35.60
2018-02-21T15:50:25.317Z,35.80
2018-02-21T15:52:52.755Z,35.80
2018-02-21T15:55:20.962Z,36.90
2018-02-21T15:57:48.411Z,36.80
2018-02-21T16:00:15.842Z,37.70
2018-02-21T16:02:44.062Z,39.60
2018-02-21T16:05:11.483Z,39.00
2018-02-21T16:07:39.690Z,40.40
2018-02-21T16:10:07.720Z,40.40
2018-02-21T16:12:35.207Z,40.90
2018-02-21T16:15:02.636Z,41.40
2018-02-21T16:17:30.852Z,42.70
2018-02-21T16:19:58.307Z,42.60
2018-02-21T16:22:25.757Z,43.90
2018-02-21T16:24:53.197Z,43.90
2018-02-21T16:27:21.397Z,45.00
2018-02-21T16:29:48.824Z,45.00
2018-02-21T16:32:17.034Z,46.20
2018-02-21T16:34:44.465Z,46.10
2018-02-21T16:37:11.903Z,46.00
2018-02-21T16:39:40.098Z,46.50
2018-02-21T16:42:08.297Z,46.80
2018-02-21T16:44:35.720Z,46.80
2018-02-21T16:47:03.922Z,49.30
2018-02-21T16:49:31.376Z,49.30
2018-02-21T16:51:58.797Z,49.70
2018-02-21T16:54:26.987Z,50.70
2018-02-21T16:56:55.200Z,50.90
2018-02-21T16:59:22.647Z,50.90
2018-02-21T17:01:50.099Z,51.20
2018-02-21T17:04:17.513Z,51.30
2018-02-21T17:06:44.949Z,51.80
2018-02-21T17:09:13.121Z,51.80
2018-02-21T17:11:40.796Z,52.10
2018-02-21T17:14:08.285Z,52.50
2018-02-21T17:16:36.638Z,53.40
2018-02-21T17:19:04.058Z,53.30
2018-02-21T17:21:31.477Z,53.10
2018-02-21T17:23:59.686Z,53.90
2018-02-21T17:26:27.100Z,53.90
2018-02-21T17:28:55.337Z,54.30
2018-02-21T17:31:22.781Z,54.20
2018-02-21T17:33:50.211Z,54.50
2018-02-21T17:36:17.657Z,54.30
2018-02-21T17:38:45.858Z,54.80
2018-02-21T17:41:18.967Z,54.70
2018-02-21T17:43:46.388Z,55.10
2018-02-21T17:46:13.839Z,55.40
2018-02-21T17:48:42.043Z,55.80
2018-02-21T17:51:09.544Z,56.40
2018-02-21T17:53:36.929Z,56.50
2018-02-21T17:56:05.126Z,56.60
2018-02-21T17:58:32.641Z,56.60
2018-02-21T18:01:00.054Z,56.50
2018-02-21T18:03:27.490Z,56.60
2018-02-21T18:05:54.930Z,56.80
2018-02-21T18:08:23.138Z,57.00
2018-02-21T18:10:50.578Z,57.00
2018-02-21T18:13:18.042Z,56.90
2018-02-21T18:15:45.474Z,57.60
2018-02-21T18:18:13.300Z,57.80
2018-02-21T18:20:40.793Z,57.80
2018-02-21T18:23:08.237Z,57.90
2018-02-21T18:25:35.655Z,57.50
2018-02-21T18:28:03.084Z,57.80
2018-02-21T18:30:30.511Z,57.40
2018-02-21T18:32:57.937Z,57.80
2018-02-21T18:35:25.364Z,57.60
2018-02-21T18:37:52.813Z,56.80
2018-02-21T18:40:20.240Z,57.60
2018-02-21T18:42:47.689Z,57.60
2018-02-21T18:45:15.113Z,58.00
2018-02-21T18:47:42.536Z,57.70
2018-02-21T18:50:10.744Z,57.50
2018-02-21T18:52:38.194Z,57.40
2018-02-21T18:55:05.596Z,57.30
2018-02-21T18:57:33.025Z,57.40
2018-02-21T19:00:00.447Z,57.70
2018-02-21T19:02:27.875Z,57.40
2018-02-21T19:04:55.310Z,58.20
2018-02-21T19:07:24.253Z,58.70
2018-02-21T19:09:51.681Z,58.60
2018-02-21T19:12:19.869Z,58.00
2018-02-21T19:14:48.092Z,57.90
2018-02-21T19:17:15.517Z,57.90
2018-02-21T19:19:42.953Z,58.50
2018-02-21T19:22:11.165Z,59.00
2018-02-21T19:24:38.592Z,59.00
2018-02-21T19:27:06.778Z,59.70
2018-02-21T19:29:34.235Z,59.60
2018-02-21T19:32:03.509Z,60.00
2018-02-21T19:34:32.634Z,59.90
2018-02-21T19:37:00.451Z,60.00
2018-02-21T19:39:30.988Z,60.00
2018-02-21T19:41:58.417Z,60.10
2018-02-21T19:44:25.962Z,60.40
2018-02-21T19:46:53.564Z,60.70
2018-02-21T19:49:20.997Z,61.60
2018-02-21T19:51:48.430Z,61.80
2018-02-21T19:54:15.852Z,62.00
2018-02-21T19:56:43.295Z,61.90
2018-02-21T19:59:11.713Z,62.30
2018-02-21T20:01:40.157Z,63.10
2018-02-21T20:04:07.582Z,63.20
2018-02-21T20:06:35.077Z,63.30
2018-02-21T20:09:02.524Z,63.40
2018-02-21T20:11:30.030Z,63.20
2018-02-21T20:13:59.210Z,63.90
2018-02-21T20:16:27.454Z,64.20
2018-02-21T20:18:55.004Z,64.20
2018-02-21T20:21:22.445Z,64.90
2018-02-21T20:23:50.877Z,65.20
2018-02-21T20:26:18.971Z,65.20
2018-02-21T20:28:47.168Z,65.60
2018-02-21T20:31:14.701Z,65.70
2018-02-21T20:33:42.888Z,66.40
2018-02-21T20:36:10.325Z,66.30
2018-02-21T20:38:38.522Z,67.10
2018-02-21T20:41:05.948Z,67.00
2018-02-21T20:43:34.201Z,67.00
2018-02-21T20:46:01.573Z,67.00
2018-02-21T20:48:29.025Z,67.30
2018-02-21T20:50:56.469Z,67.70
2018-02-21T20:53:23.899Z,68.10
2018-02-21T20:55:51.320Z,68.40
2018-02-21T20:58:19.503Z,68.70
2018-02-21T21:00:46.956Z,68.70
2018-02-21T21:03:15.179Z,69.20
2018-02-21T21:05:42.611Z,69.10
2018-02-21T21:08:10.029Z,69.40
2018-02-21T21:10:37.467Z,69.40
2018-02-21T21:13:04.907Z,69.20
2018-02-21T21:15:32.341Z,69.70
2018-02-21T21:17:59.773Z,70.40
2018-02-21T21:20:27.997Z,70.50
2018-02-21T21:22:55.434Z,70.30
2018-02-21T21:25:22.876Z,70.30
2018-02-21T21:27:50.309Z,70.10
2018-02-21T21:30:18.516Z,70.70
2018-02-21T21:32:45.937Z,70.60
2018-02-21T21:35:13.873Z,70.60
2018-02-21T21:37:41.293Z,71.50
2018-02-21T21:40:08.757Z,71.00
2018-02-21T21:42:36.180Z,71.00
2018-02-21T21:45:04.380Z,70.80
2018-02-21T21:47:31.809Z,70.80
2018-02-21T21:49:59.246Z,71.10
2018-02-21T21:52:26.674Z,71.30
2018-02-21T21:54:54.100Z,70.80
2018-02-21T21:57:22.291Z,72.10
2018-02-21T21:59:49.722Z,72.00
2018-02-21T22:02:17.917Z,72.70
2018-02-21T22:04:45.351Z,72.60
2018-02-21T22:07:14.472Z,72.80
2018-02-21T22:09:41.958Z,72.70
2018-02-21T22:12:09.396Z,73.50
2018-02-21T22:14:36.846Z,73.50
2018-02-21T22:17:04.271Z,73.60
2018-02-21T22:19:31.726Z,73.20
2018-02-21T22:21:59.162Z,73.00
2018-02-21T22:24:26.587Z,72.90
2018-02-21T22:26:54.008Z,73.00
2018-02-21T22:29:22.228Z,73.50
2018-02-21T22:31:49.651Z,73.50
2018-02-21T22:34:17.847Z,73.50
2018-02-21T22:36:45.270Z,73.40
2018-02-21T22:39:14.391Z,74.40
2018-02-21T22:41:41.837Z,74.20
2018-02-21T22:44:10.030Z,76.00
2018-02-21T22:46:37.460Z,75.90
2018-02-21T22:49:05.655Z,75.70
2018-02-21T22:51:33.098Z,75.50
2018-02-21T22:54:01.295Z,76.10
2018-02-21T22:56:28.733Z,76.00
2018-02-21T22:58:56.937Z,75.90
2018-02-21T23:01:24.376Z,75.90
2018-02-21T23:03:51.809Z,75.60
2018-02-21T23:06:20.015Z,75.60
2018-02-21T23:08:47.466Z,75.60
2018-02-21T23:11:14.928Z,76.20
2018-02-21T23:13:42.345Z,75.90
2018-02-21T23:16:09.776Z,76.10
2018-02-21T23:18:37.972Z,75.40
2018-02-21T23:21:05.409Z,75.60
2018-02-21T23:23:32.834Z,75.30
2018-02-21T23:26:00.287Z,75.30
2018-02-21T23:28:27.713Z,75.40
2018-02-21T23:30:55.909Z,75.40
2018-02-21T23:33:23.361Z,75.30
2018-02-21T23:35:51.553Z,75.70
2018-02-21T23:38:18.995Z,75.70
2018-02-21T23:40:47.208Z,76.30
2018-02-21T23:43:14.625Z,76.20
2018-02-21T23:45:42.828Z,76.70
2018-02-21T23:48:10.249Z,76.70
2018-02-21T23:50:38.448Z,76.40
2018-02-21T23:53:06.638Z,76.20
2018-02-21T23:55:34.088Z,76.20
2018-02-21T23:58:01.502Z,75.80
